Terminal Aerodrome Forecast
Issued by NWS

Home | Current Version | Previous Version | Text Only | Print | Product List | Glossary On
Versions: 1 2 3 4 5 6 7 8 9 10 11 12
000
FTUS45 KPIH 282300
TAFSUN
TAF
KSUN 282333Z 2900/2924 15008KT P6SM FEW070 BKN120
     FM290100 30008KT P6SM VCSH BKN050 OVC100
     FM290500 31008KT 6SM -SHSN SCT025 OVC050
     FM291500 VRB06KT 4SM -SHSN SCT015 BKN025 OVC035
      AMD LTD TO CLD VIS AND WIND 2906/2914=

USA.gov is the U.S. government's official web portal to all federal, state and local government web resources and services.